createdAt,value
2019-01-19T00:00:11.351Z,-0.96
2019-01-19T00:01:30.011Z,-0.93
2019-01-19T00:02:36.569Z,-0.95
2019-01-19T00:03:55.126Z,-0.94
2019-01-19T00:05:10.690Z,-0.92
2019-01-19T00:06:21.539Z,-0.87
2019-01-19T00:07:28.120Z,-0.87
2019-01-19T00:08:34.461Z,-0.84
2019-01-19T00:09:41.020Z,-0.86
2019-01-19T00:10:47.580Z,-0.81
2019-01-19T00:12:06.286Z,-0.86
2019-01-19T00:13:30.773Z,-0.93
2019-01-19T00:14:34.057Z,-0.85
2019-01-19T00:15:49.549Z,-0.74
2019-01-19T00:16:58.719Z,-0.74
2019-01-19T00:18:07.821Z,-0.67
2019-01-19T00:19:23.148Z,-0.61
2019-01-19T00:20:53.860Z,-0.52
2019-01-19T00:22:09.254Z,-0.54
2019-01-19T00:23:21.524Z,-0.54
2019-01-19T00:24:28.085Z,-0.62
2019-01-19T00:25:46.007Z,-0.62
2019-01-19T00:27:09.890Z,-0.57
2019-01-19T00:28:38.831Z,-0.52
2019-01-19T00:29:45.389Z,-0.51
2019-01-19T00:31:18.023Z,-0.48
2019-01-19T00:32:27.381Z,-0.56
2019-01-19T00:33:36.681Z,-0.65
2019-01-19T00:34:54.638Z,-0.66
2019-01-19T00:36:15.816Z,-0.60
2019-01-19T00:37:22.415Z,-0.62
2019-01-19T00:38:46.565Z,-0.60
2019-01-19T00:40:23.379Z,-0.59
2019-01-19T00:41:51.241Z,-0.58
2019-01-19T00:42:57.212Z,-0.63
2019-01-19T00:44:22.611Z,-0.67
2019-01-19T00:45:55.301Z,-0.58
2019-01-19T00:47:01.863Z,-0.39
2019-01-19T00:48:28.981Z,-0.40
2019-01-19T00:49:33.067Z,-0.41
2019-01-19T00:50:54.828Z,-0.51
2019-01-19T00:52:13.514Z,-0.58
2019-01-19T00:53:22.531Z,-0.70
2019-01-19T00:54:29.129Z,-0.74
2019-01-19T00:55:38.396Z,-0.77
2019-01-19T00:56:47.738Z,-0.77
2019-01-19T00:57:54.302Z,-0.72
2019-01-19T00:59:00.928Z,-0.66
2019-01-19T01:00:10.233Z,-0.60
2019-01-19T01:01:25.458Z,-0.60
2019-01-19T01:02:32.086Z,-0.60
2019-01-19T01:03:41.452Z,-0.51
2019-01-19T01:04:48.018Z,-0.48
2019-01-19T01:06:06.612Z,-0.46
2019-01-19T01:07:13.169Z,-0.48
2019-01-19T01:08:28.766Z,-0.50
2019-01-19T01:09:50.416Z,-0.53
2019-01-19T01:10:56.976Z,-0.61
2019-01-19T01:12:23.333Z,-0.72
2019-01-19T01:13:47.965Z,-0.67
2019-01-19T01:15:00.710Z,-0.71
2019-01-19T01:16:07.591Z,-0.72
2019-01-19T01:17:14.151Z,-0.69
2019-01-19T01:18:29.826Z,-0.69
2019-01-19T01:19:57.361Z,-0.62
2019-01-19T01:21:38.954Z,-0.53
2019-01-19T01:22:51.258Z,-0.39
2019-01-19T01:23:57.863Z,-0.26
2019-01-19T01:25:07.118Z,-0.33
2019-01-19T01:26:29.103Z,-0.39
2019-01-19T01:27:44.309Z,-0.45
2019-01-19T01:29:22.555Z,-0.50
2019-01-19T01:30:47.175Z,-0.46
2019-01-19T01:32:05.707Z,-0.44
2019-01-19T01:33:31.993Z,-0.43
2019-01-19T01:35:07.343Z,-0.41
2019-01-19T01:36:25.307Z,-0.40
2019-01-19T01:37:37.906Z,-0.46
2019-01-19T01:38:47.510Z,-0.53
2019-01-19T01:40:11.062Z,-0.63
2019-01-19T01:41:26.427Z,-0.74
2019-01-19T01:42:52.666Z,-0.80
2019-01-19T01:44:05.135Z,-0.77
2019-01-19T01:45:11.686Z,-0.85
2019-01-19T01:46:23.855Z,-0.89
2019-01-19T01:47:50.152Z,-0.87
2019-01-19T01:49:14.669Z,-0.79
2019-01-19T01:50:24.145Z,-0.81
2019-01-19T01:51:42.138Z,-0.77
2019-01-19T01:53:08.324Z,-0.75
2019-01-19T01:54:26.903Z,-0.66
2019-01-19T01:55:33.538Z,-0.66
2019-01-19T01:56:36.833Z,-0.67
2019-01-19T01:57:42.974Z,-0.65
2019-01-19T01:58:55.278Z,-0.55
2019-01-19T02:00:13.865Z,-0.41
2019-01-19T02:01:26.050Z,-0.38
2019-01-19T02:02:35.581Z,-0.48
2019-01-19T02:03:44.954Z,-0.57
2019-01-19T02:05:11.138Z,-0.63
2019-01-19T02:06:26.586Z,-0.67
2019-01-19T02:07:41.767Z,-0.74
2019-01-19T02:09:11.260Z,-0.79
2019-01-19T02:10:26.841Z,-0.90
2019-01-19T02:11:33.384Z,-0.91
2019-01-19T02:12:46.201Z,-0.92
2019-01-19T02:13:52.759Z,-0.92
2019-01-19T02:15:14.418Z,-0.98
2019-01-19T02:16:37.606Z,-1.03
2019-01-19T02:18:13.940Z,-1.02
2019-01-19T02:19:26.448Z,-1.00
2019-01-19T02:20:35.526Z,-1.06
2019-01-19T02:21:57.175Z,-1.09
2019-01-19T02:23:03.738Z,-1.13
2019-01-19T02:24:25.542Z,-1.18
2019-01-19T02:25:34.982Z,-1.17
2019-01-19T02:27:10.163Z,-1.05
2019-01-19T02:28:28.560Z,-1.00
2019-01-19T02:29:41.006Z,-0.95
2019-01-19T02:31:06.049Z,-0.94
2019-01-19T02:32:18.149Z,-0.86
2019-01-19T02:33:36.288Z,-0.85
2019-01-19T02:34:42.883Z,-0.85
2019-01-19T02:36:15.379Z,-0.83
2019-01-19T02:37:33.681Z,-0.80
2019-01-19T02:38:55.080Z,-0.84
2019-01-19T02:40:16.542Z,-0.83
2019-01-19T02:41:41.246Z,-0.80
2019-01-19T02:43:07.288Z,-0.68
2019-01-19T02:44:25.637Z,-0.58
2019-01-19T02:46:02.489Z,-0.56
2019-01-19T02:47:14.752Z,-0.60
2019-01-19T02:48:40.801Z,-0.68
2019-01-19T02:49:51.301Z,-0.72
2019-01-19T02:50:57.862Z,-0.79
2019-01-19T02:52:19.491Z,-0.86
2019-01-19T02:53:28.904Z,-0.80
2019-01-19T02:54:49.926Z,-0.74
2019-01-19T02:56:02.189Z,-0.74
2019-01-19T02:57:11.682Z,-0.73
2019-01-19T02:58:42.829Z,-0.71
2019-01-19T02:59:52.328Z,-0.68
2019-01-19T03:01:30.562Z,-0.67
2019-01-19T03:02:40.039Z,-0.65
2019-01-19T03:03:49.227Z,-0.62
2019-01-19T03:05:01.489Z,-0.60
2019-01-19T03:06:08.040Z,-0.61
2019-01-19T03:07:20.474Z,-0.58
2019-01-19T03:08:35.704Z,-0.55
2019-01-19T03:09:50.043Z,-0.51
2019-01-19T03:10:56.703Z,-0.49
2019-01-19T03:12:03.695Z,-0.57
2019-01-19T03:13:36.978Z,-0.54
2019-01-19T03:14:58.368Z,-0.49
2019-01-19T03:16:19.859Z,-0.44
2019-01-19T03:17:48.879Z,-0.39
2019-01-19T03:19:22.553Z,-0.40
2019-01-19T03:20:34.771Z,-0.38
2019-01-19T03:21:59.093Z,-0.37
2019-01-19T03:23:20.766Z,-0.33
2019-01-19T03:24:36.255Z,-0.36
2019-01-19T03:25:42.814Z,-0.45
2019-01-19T03:27:00.628Z,-0.50
2019-01-19T03:28:12.924Z,-0.41
2019-01-19T03:29:25.663Z,-0.37
2019-01-19T03:30:44.261Z,-0.34
2019-01-19T03:31:50.812Z,-0.31
2019-01-19T03:33:19.998Z,-0.28
2019-01-19T03:35:01.508Z,-0.23
2019-01-19T03:36:23.163Z,-0.32
2019-01-19T03:37:44.996Z,-0.42
2019-01-19T03:39:05.334Z,-0.49
2019-01-19T03:40:20.596Z,-0.56
2019-01-19T03:41:33.477Z,-0.66
2019-01-19T03:43:08.251Z,-0.78
2019-01-19T03:44:32.578Z,-0.79
2019-01-19T03:45:48.207Z,-0.82
2019-01-19T03:47:09.945Z,-0.83
2019-01-19T03:48:24.641Z,-0.88
2019-01-19T03:49:33.982Z,-0.90
2019-01-19T03:50:56.979Z,-0.86
2019-01-19T03:52:19.982Z,-0.81
2019-01-19T03:53:29.665Z,-0.88
2019-01-19T03:54:54.271Z,-0.91
2019-01-19T03:56:12.729Z,-0.96
2019-01-19T03:57:41.867Z,-0.93
2019-01-19T03:58:54.560Z,-0.87
2019-01-19T04:00:17.380Z,-0.82
2019-01-19T04:01:32.529Z,-0.83
2019-01-19T04:02:45.077Z,-0.81
2019-01-19T04:03:51.660Z,-0.82
2019-01-19T04:05:15.223Z,-0.77
2019-01-19T04:06:27.382Z,-0.74
2019-01-19T04:07:43.051Z,-0.79
2019-01-19T04:08:59.237Z,-0.80
2019-01-19T04:10:05.796Z,-0.77
2019-01-19T04:11:24.447Z,-0.84
2019-01-19T04:12:36.984Z,-0.83
2019-01-19T04:13:43.540Z,-0.82
2019-01-19T04:14:53.254Z,-0.77
2019-01-19T04:16:02.586Z,-0.69
2019-01-19T04:17:09.142Z,-0.65
2019-01-19T04:18:24.668Z,-0.66
2019-01-19T04:19:37.163Z,-0.67
2019-01-19T04:21:04.680Z,-0.65
2019-01-19T04:22:13.987Z,-0.65
2019-01-19T04:23:17.690Z,-0.78
2019-01-19T04:24:26.887Z,-0.77
2019-01-19T04:25:42.580Z,-0.74
2019-01-19T04:26:46.419Z,-0.70
2019-01-19T04:27:49.720Z,-0.68
2019-01-19T04:28:53.289Z,-0.64
2019-01-19T04:29:56.591Z,-0.60
2019-01-19T04:30:59.980Z,-0.60
2019-01-19T04:32:03.458Z,-0.64
2019-01-19T04:33:06.745Z,-0.64
2019-01-19T04:34:10.106Z,-0.65
2019-01-19T04:35:13.403Z,-0.60
2019-01-19T04:36:21.628Z,-0.58
2019-01-19T04:37:21.989Z,-0.57
2019-01-19T04:38:25.672Z,-0.57
2019-01-19T04:39:29.333Z,-0.58
2019-01-19T04:40:32.653Z,-0.54
2019-01-19T04:41:35.936Z,-0.54
2019-01-19T04:42:40.539Z,-0.50
2019-01-19T04:43:43.845Z,-0.51
2019-01-19T04:44:47.140Z,-0.44
2019-01-19T04:45:50.426Z,-0.44
2019-01-19T04:46:53.799Z,-0.50
2019-01-19T04:47:57.136Z,-0.50
2019-01-19T04:49:00.486Z,-0.49
2019-01-19T04:50:04.343Z,-0.51
2019-01-19T04:51:07.630Z,-0.53
2019-01-19T04:52:10.914Z,-0.53
2019-01-19T04:53:14.257Z,-0.51
2019-01-19T04:54:17.557Z,-0.47
2019-01-19T04:55:20.875Z,-0.45
2019-01-19T04:56:24.171Z,-0.42
2019-01-19T04:57:27.459Z,-0.40
2019-01-19T04:58:30.750Z,-0.36
2019-01-19T04:59:34.036Z,-0.31
2019-01-19T05:00:37.359Z,-0.22
2019-01-19T05:01:40.650Z,-0.21
2019-01-19T05:02:43.963Z,-0.24
2019-01-19T05:03:47.406Z,-0.27
2019-01-19T05:04:50.799Z,-0.29
2019-01-19T05:05:54.137Z,-0.39
2019-01-19T05:06:57.433Z,-0.38
2019-01-19T05:08:00.724Z,-0.31
2019-01-19T05:09:06.598Z,-0.36
2019-01-19T05:10:11.727Z,-0.40
2019-01-19T05:11:15.419Z,-0.43
2019-01-19T05:12:18.781Z,-0.43
2019-01-19T05:13:22.075Z,-0.39
2019-01-19T05:14:25.431Z,-0.35
2019-01-19T05:15:28.716Z,-0.30
2019-01-19T05:16:32.015Z,-0.26
2019-01-19T05:17:35.479Z,-0.21
2019-01-19T05:18:38.778Z,-0.28
2019-01-19T05:19:42.084Z,-0.25
2019-01-19T05:20:45.371Z,-0.24
2019-01-19T05:21:48.697Z,-0.24
2019-01-19T05:22:51.978Z,-0.27
2019-01-19T05:23:55.442Z,-0.29
2019-01-19T05:24:58.861Z,-0.35
2019-01-19T05:26:02.210Z,-0.36
2019-01-19T05:27:05.569Z,-0.37
2019-01-19T05:28:08.935Z,-0.37
2019-01-19T05:29:12.230Z,-0.40
2019-01-19T05:30:17.664Z,-0.45
2019-01-19T05:31:20.958Z,-0.43
2019-01-19T05:32:24.747Z,-0.39
2019-01-19T05:33:28.076Z,-0.49
2019-01-19T05:34:31.367Z,-0.63
2019-01-19T05:35:34.659Z,-0.66
2019-01-19T05:36:38.616Z,-0.69
2019-01-19T05:37:42.111Z,-0.67
2019-01-19T05:38:45.434Z,-0.67
2019-01-19T05:39:48.728Z,-0.69
2019-01-19T05:40:52.026Z,-0.65
2019-01-19T05:41:55.316Z,-0.63
2019-01-19T05:42:58.634Z,-0.61
2019-01-19T05:44:01.962Z,-0.66
2019-01-19T05:45:07.883Z,-0.64
2019-01-19T05:46:11.185Z,-0.67
2019-01-19T05:47:14.575Z,-0.70
2019-01-19T05:48:17.975Z,-0.77
2019-01-19T05:49:21.298Z,-0.70
2019-01-19T05:50:24.593Z,-0.66
2019-01-19T05:51:27.893Z,-0.69
2019-01-19T05:52:31.340Z,-0.70
2019-01-19T05:53:34.635Z,-0.68
2019-01-19T05:54:38.020Z,-0.71
2019-01-19T05:55:41.399Z,-0.62
2019-01-19T05:56:44.749Z,-0.55
2019-01-19T05:57:48.047Z,-0.49
2019-01-19T05:58:51.334Z,-0.48
2019-01-19T05:59:54.662Z,-0.49
2019-01-19T06:00:58.350Z,-0.49
2019-01-19T06:02:01.720Z,-0.52
2019-01-19T06:03:05.054Z,-0.55
2019-01-19T06:04:08.375Z,-0.59
2019-01-19T06:05:11.703Z,-0.66
2019-01-19T06:06:15.171Z,-0.69
2019-01-19T06:07:18.504Z,-0.68
2019-01-19T06:08:21.803Z,-0.67
2019-01-19T06:09:25.099Z,-0.68
2019-01-19T06:10:28.435Z,-0.65
2019-01-19T06:11:31.821Z,-0.55
2019-01-19T06:12:35.109Z,-0.59
2019-01-19T06:13:38.393Z,-0.72
2019-01-19T06:14:41.682Z,-0.83
2019-01-19T06:15:45.015Z,-0.95
2019-01-19T06:16:48.305Z,-1.04
2019-01-19T06:17:51.596Z,-1.03
2019-01-19T06:18:55.154Z,-0.94
2019-01-19T06:19:58.520Z,-0.91
2019-01-19T06:21:02.301Z,-0.89
2019-01-19T06:22:05.960Z,-0.83
2019-01-19T06:23:09.244Z,-0.83
2019-01-19T06:24:12.550Z,-0.91
2019-01-19T06:25:16.548Z,-0.99
2019-01-19T06:26:19.859Z,-1.07
2019-01-19T06:27:23.145Z,-1.05
2019-01-19T06:28:26.443Z,-1.12
2019-01-19T06:29:29.730Z,-1.17
2019-01-19T06:30:33.031Z,-1.21
2019-01-19T06:31:36.362Z,-1.19
2019-01-19T06:32:39.721Z,-1.09
2019-01-19T06:33:43.086Z,-1.01
2019-01-19T06:34:46.472Z,-0.96
2019-01-19T06:35:49.781Z,-0.94
2019-01-19T06:36:55.049Z,-0.95
2019-01-19T06:37:58.172Z,-0.90
2019-01-19T06:39:01.520Z,-0.86
2019-01-19T06:40:10.993Z,-0.87
2019-01-19T06:41:14.345Z,-0.81
2019-01-19T06:42:17.757Z,-0.78
2019-01-19T06:43:21.039Z,-0.66
2019-01-19T06:44:24.332Z,-0.50
2019-01-19T06:45:27.627Z,-0.40
2019-01-19T06:46:30.916Z,-0.25
2019-01-19T06:47:34.241Z,-0.20
2019-01-19T06:48:37.601Z,-0.23
2019-01-19T06:49:40.885Z,-0.20
2019-01-19T06:50:44.191Z,-0.20
2019-01-19T06:51:47.491Z,-0.25
2019-01-19T06:52:50.806Z,-0.35
2019-01-19T06:54:01.518Z,-0.46
2019-01-19T06:55:00.591Z,-0.36
2019-01-19T06:56:04.254Z,-0.29
2019-01-19T06:57:07.682Z,-0.33
2019-01-19T06:58:11.092Z,-0.36
2019-01-19T06:59:17.459Z,-0.27
2019-01-19T07:00:19.483Z,-0.19
2019-01-19T07:01:22.779Z,-0.17
2019-01-19T07:02:26.154Z,-0.24
2019-01-19T07:03:29.476Z,-0.30
2019-01-19T07:04:32.772Z,-0.34
2019-01-19T07:05:36.061Z,-0.28
2019-01-19T07:06:39.436Z,-0.21
2019-01-19T07:07:42.789Z,-0.16
2019-01-19T07:08:46.191Z,-0.12
2019-01-19T07:09:49.488Z,-0.07
2019-01-19T07:10:52.788Z,-0.14
2019-01-19T07:11:58.745Z,-0.12
2019-01-19T07:13:02.067Z,-0.10
2019-01-19T07:14:05.402Z,-0.06
2019-01-19T07:15:10.807Z,0.02
2019-01-19T07:16:14.150Z,0.07
2019-01-19T07:17:17.805Z,0.07
2019-01-19T07:18:21.097Z,0.09
2019-01-19T07:19:26.051Z,0.08
2019-01-19T07:20:30.959Z,0.03
2019-01-19T07:21:34.550Z,0.03
2019-01-19T07:22:37.837Z,0.07
2019-01-19T07:23:41.120Z,0.03
2019-01-19T07:24:46.836Z,0.03
2019-01-19T07:25:51.407Z,0.02
2019-01-19T07:26:58.716Z,0.11
2019-01-19T07:28:01.946Z,0.10
2019-01-19T07:29:05.309Z,0.16
2019-01-19T07:30:16.281Z,0.21
2019-01-19T07:31:19.593Z,0.19
2019-01-19T07:32:24.503Z,0.30
2019-01-19T07:33:29.427Z,0.34
2019-01-19T07:34:35.985Z,0.34
2019-01-19T07:35:41.039Z,0.33
2019-01-19T07:36:45.970Z,0.41
2019-01-19T07:37:50.913Z,0.43
2019-01-19T07:38:54.268Z,0.39
2019-01-19T07:39:57.627Z,0.42
2019-01-19T07:41:00.952Z,0.50
2019-01-19T07:42:04.254Z,0.55
2019-01-19T07:43:08.512Z,0.61
2019-01-19T07:44:11.801Z,0.56
2019-01-19T07:45:15.791Z,0.62
2019-01-19T07:46:19.341Z,0.66
2019-01-19T07:47:24.589Z,0.65
2019-01-19T07:48:27.974Z,0.66
2019-01-19T07:49:34.454Z,0.76
2019-01-19T07:50:37.744Z,0.88
2019-01-19T07:51:43.436Z,0.91
2019-01-19T07:52:46.802Z,0.97
2019-01-19T07:53:50.164Z,1.01
2019-01-19T07:54:56.454Z,1.09
2019-01-19T07:55:59.773Z,1.10
2019-01-19T07:57:03.100Z,1.18
2019-01-19T07:58:06.449Z,1.33
2019-01-19T07:59:09.765Z,1.37
2019-01-19T08:00:21.912Z,1.46
2019-01-19T08:01:25.482Z,1.58
2019-01-19T08:02:28.940Z,1.67
2019-01-19T08:03:32.348Z,1.69
2019-01-19T08:04:35.702Z,1.77
2019-01-19T08:05:39.061Z,1.79
2019-01-19T08:06:42.451Z,1.75
2019-01-19T08:07:45.893Z,1.77
2019-01-19T08:08:51.038Z,1.81
2019-01-19T08:09:54.386Z,2.03
2019-01-19T08:10:57.772Z,2.21
2019-01-19T08:12:01.056Z,2.33
2019-01-19T08:13:04.388Z,2.30
2019-01-19T08:14:07.721Z,2.30
2019-01-19T08:15:14.356Z,2.39
2019-01-19T08:16:17.814Z,2.44
2019-01-19T08:17:21.172Z,2.40
2019-01-19T08:18:26.662Z,2.41
2019-01-19T08:19:29.957Z,2.43
2019-01-19T08:20:33.318Z,2.37
2019-01-19T08:21:38.133Z,2.36
2019-01-19T08:22:41.396Z,2.24
2019-01-19T08:23:44.725Z,2.34
2019-01-19T08:24:48.084Z,2.41
2019-01-19T08:25:51.454Z,2.42
2019-01-19T08:26:54.810Z,2.30
2019-01-19T08:27:58.132Z,2.35
2019-01-19T08:29:01.559Z,2.45
2019-01-19T08:30:14.119Z,2.55
2019-01-19T08:31:19.074Z,2.64
2019-01-19T08:32:22.455Z,2.48
2019-01-19T08:33:25.749Z,2.47
2019-01-19T08:34:29.271Z,2.57
2019-01-19T08:35:33.019Z,2.53
2019-01-19T08:36:36.314Z,2.52
2019-01-19T08:37:39.603Z,2.61
2019-01-19T08:38:44.674Z,2.62
2019-01-19T08:39:48.393Z,2.69
2019-01-19T08:40:51.699Z,2.75
2019-01-19T08:41:55.027Z,2.92
2019-01-19T08:43:02.699Z,3.05
2019-01-19T08:44:06.043Z,3.22
2019-01-19T08:45:10.894Z,3.21
2019-01-19T08:46:14.596Z,3.12
2019-01-19T08:47:20.080Z,3.40
2019-01-19T08:48:26.020Z,3.77
2019-01-19T08:49:29.396Z,3.97
2019-01-19T08:50:32.726Z,4.10
2019-01-19T08:51:36.040Z,4.40
2019-01-19T08:52:39.341Z,4.54
2019-01-19T08:53:42.637Z,4.66
2019-01-19T08:54:46.003Z,4.78
2019-01-19T08:55:49.368Z,4.96
2019-01-19T08:56:52.673Z,5.19
2019-01-19T08:57:56.000Z,5.48
2019-01-19T08:58:59.299Z,5.74
2019-01-19T09:00:02.778Z,5.47
2019-01-19T09:01:06.105Z,5.33
2019-01-19T09:02:09.548Z,5.26
2019-01-19T09:03:12.883Z,5.10
2019-01-19T09:04:16.272Z,4.91
2019-01-19T09:05:19.830Z,4.73
2019-01-19T09:06:23.153Z,4.71
2019-01-19T09:07:33.493Z,4.67
2019-01-19T09:08:31.867Z,4.62
2019-01-19T09:09:35.307Z,4.59
2019-01-19T09:10:38.607Z,4.47
2019-01-19T09:11:41.939Z,4.43
2019-01-19T09:12:45.296Z,4.36
2019-01-19T09:13:48.581Z,4.43
2019-01-19T09:14:51.891Z,4.45
2019-01-19T09:15:56.460Z,4.39
2019-01-19T09:16:59.770Z,4.30
2019-01-19T09:18:03.125Z,4.29
2019-01-19T09:19:06.575Z,4.37
2019-01-19T09:20:14.342Z,4.54
2019-01-19T09:21:19.262Z,4.65
2019-01-19T09:22:22.820Z,4.56
2019-01-19T09:23:27.837Z,4.51
2019-01-19T09:24:31.480Z,4.54
2019-01-19T09:25:38.415Z,4.57
2019-01-19T09:26:44.058Z,4.56
2019-01-19T09:27:49.478Z,4.64
2019-01-19T09:28:53.527Z,4.58
2019-01-19T09:29:57.424Z,4.56
2019-01-19T09:31:03.274Z,4.53
2019-01-19T09:32:06.823Z,4.53
2019-01-19T09:33:10.270Z,4.58
2019-01-19T09:34:13.575Z,4.68
2019-01-19T09:35:17.141Z,4.82
2019-01-19T09:36:20.479Z,4.92
2019-01-19T09:37:23.774Z,5.07
2019-01-19T09:38:30.575Z,5.13
2019-01-19T09:39:33.868Z,5.25
2019-01-19T09:40:37.279Z,5.35
2019-01-19T09:41:45.031Z,5.40
2019-01-19T09:42:48.501Z,5.30
2019-01-19T09:43:51.840Z,5.12
2019-01-19T09:44:57.422Z,5.09
2019-01-19T09:46:00.689Z,5.19
2019-01-19T09:47:04.062Z,5.35
2019-01-19T09:48:07.440Z,5.23
2019-01-19T09:49:10.763Z,5.17
2019-01-19T09:50:18.452Z,5.22
2019-01-19T09:51:21.747Z,5.32
2019-01-19T09:52:25.166Z,5.28
2019-01-19T09:53:28.893Z,5.14
2019-01-19T09:54:32.227Z,5.19
2019-01-19T09:55:35.523Z,5.31
2019-01-19T09:56:38.918Z,5.25
2019-01-19T09:57:42.341Z,5.19
2019-01-19T09:58:45.631Z,5.24
2019-01-19T09:59:48.969Z,5.07
2019-01-19T10:00:52.401Z,5.02
2019-01-19T10:01:55.692Z,5.11
2019-01-19T10:02:58.987Z,5.23
2019-01-19T10:04:02.355Z,5.23
2019-01-19T10:05:08.952Z,5.31
2019-01-19T10:06:12.251Z,5.37
2019-01-19T10:07:15.651Z,5.42
2019-01-19T10:08:20.574Z,5.33
2019-01-19T10:09:25.655Z,5.42
2019-01-19T10:10:28.933Z,5.38
2019-01-19T10:11:32.644Z,5.30
2019-01-19T10:12:35.975Z,5.17
2019-01-19T10:13:39.331Z,5.23
2019-01-19T10:14:42.703Z,5.32
2019-01-19T10:15:46.117Z,5.34
2019-01-19T10:16:49.467Z,5.22
2019-01-19T10:17:52.851Z,5.29
2019-01-19T10:18:56.241Z,5.36
2019-01-19T10:19:59.729Z,5.29
2019-01-19T10:21:03.198Z,5.29
2019-01-19T10:22:08.312Z,5.19
2019-01-19T10:23:11.773Z,5.29
2019-01-19T10:24:15.035Z,5.38
2019-01-19T10:25:18.325Z,5.49
2019-01-19T10:26:21.658Z,5.62
2019-01-19T10:27:24.942Z,5.65
2019-01-19T10:28:28.235Z,5.68
2019-01-19T10:29:31.610Z,5.54
2019-01-19T10:30:34.900Z,5.34
2019-01-19T10:31:38.227Z,5.20
2019-01-19T10:32:41.512Z,4.99
2019-01-19T10:33:44.829Z,5.03
2019-01-19T10:34:48.130Z,4.97
2019-01-19T10:35:51.446Z,4.87
2019-01-19T10:36:54.759Z,5.00
2019-01-19T10:37:58.125Z,5.08
2019-01-19T10:39:01.532Z,5.05
2019-01-19T10:40:08.100Z,4.93
2019-01-19T10:41:11.479Z,4.93
2019-01-19T10:42:14.865Z,4.93
2019-01-19T10:43:18.229Z,4.92
2019-01-19T10:44:21.678Z,4.94
2019-01-19T10:45:29.303Z,5.02
2019-01-19T10:46:32.645Z,5.09
2019-01-19T10:47:35.908Z,4.94
2019-01-19T10:48:39.206Z,5.02
2019-01-19T10:49:42.568Z,5.02
2019-01-19T10:50:46.278Z,4.93
2019-01-19T10:51:49.571Z,5.01
2019-01-19T10:52:52.890Z,5.19
2019-01-19T10:53:57.915Z,5.32
2019-01-19T10:55:01.762Z,5.43
2019-01-19T10:56:05.198Z,5.67
2019-01-19T10:57:08.503Z,5.78
2019-01-19T10:58:11.801Z,5.93
2019-01-19T10:59:15.172Z,6.13
2019-01-19T11:00:29.985Z,6.27
2019-01-19T11:01:33.345Z,6.39
2019-01-19T11:02:36.628Z,6.51
2019-01-19T11:03:40.075Z,6.60
2019-01-19T11:04:43.714Z,6.68
2019-01-19T11:05:47.002Z,6.63
2019-01-19T11:06:50.391Z,6.53
2019-01-19T11:07:54.004Z,6.51
2019-01-19T11:08:57.389Z,6.38
2019-01-19T11:10:00.817Z,6.20
2019-01-19T11:11:04.086Z,6.11
2019-01-19T11:12:07.369Z,5.98
2019-01-19T11:13:10.671Z,5.96
2019-01-19T11:14:14.005Z,5.96
2019-01-19T11:15:18.736Z,6.18
2019-01-19T11:16:23.864Z,6.25
2019-01-19T11:17:27.186Z,6.36
2019-01-19T11:18:30.471Z,6.47
2019-01-19T11:19:33.793Z,6.51
2019-01-19T11:20:37.079Z,6.46
2019-01-19T11:21:40.370Z,6.31
2019-01-19T11:22:43.680Z,6.19
2019-01-19T11:23:46.962Z,6.05
2019-01-19T11:24:50.354Z,6.06
2019-01-19T11:25:53.761Z,6.14
2019-01-19T11:26:57.053Z,6.18
2019-01-19T11:28:00.339Z,6.08
2019-01-19T11:29:03.702Z,6.11
2019-01-19T11:30:25.076Z,6.12
2019-01-19T11:31:28.372Z,6.25
2019-01-19T11:32:31.669Z,6.39
2019-01-19T11:33:34.962Z,6.42
2019-01-19T11:34:38.505Z,6.36
2019-01-19T11:35:41.881Z,6.23
2019-01-19T11:36:45.237Z,6.30
2019-01-19T11:37:48.664Z,6.46
2019-01-19T11:38:52.035Z,6.61
2019-01-19T11:39:55.465Z,6.69
2019-01-19T11:40:58.792Z,6.74
2019-01-19T11:42:02.068Z,6.73
2019-01-19T11:43:07.025Z,6.63
2019-01-19T11:44:10.358Z,6.54
2019-01-19T11:45:16.055Z,6.51
2019-01-19T11:46:19.511Z,6.48
2019-01-19T11:47:22.868Z,6.43
2019-01-19T11:48:26.149Z,6.59
2019-01-19T11:49:29.501Z,6.62
2019-01-19T11:50:32.781Z,6.80
2019-01-19T11:51:36.140Z,6.87
2019-01-19T11:52:39.435Z,6.94
2019-01-19T11:53:42.728Z,6.90
2019-01-19T11:54:46.696Z,6.80
2019-01-19T11:55:49.985Z,6.78
2019-01-19T11:56:53.353Z,6.72
2019-01-19T11:58:01.617Z,6.71
2019-01-19T11:59:04.943Z,6.73
2019-01-19T12:00:22.995Z,6.88
2019-01-19T12:01:26.317Z,7.00
2019-01-19T12:02:36.774Z,7.05
2019-01-19T12:03:34.753Z,7.12
2019-01-19T12:04:38.108Z,7.28
2019-01-19T12:05:41.539Z,7.37
2019-01-19T12:06:44.828Z,7.41
2019-01-19T12:07:48.160Z,7.28
2019-01-19T12:08:51.562Z,7.12
2019-01-19T12:09:55.121Z,7.03
2019-01-19T12:10:58.476Z,7.12
2019-01-19T12:12:01.771Z,7.38
2019-01-19T12:13:05.165Z,7.50
2019-01-19T12:14:08.453Z,7.47
2019-01-19T12:15:11.739Z,7.44
2019-01-19T12:16:19.247Z,7.24
2019-01-19T12:17:22.510Z,7.34
2019-01-19T12:18:25.974Z,7.42
2019-01-19T12:19:29.333Z,7.47
2019-01-19T12:20:35.640Z,7.57
2019-01-19T12:21:38.929Z,7.49
2019-01-19T12:22:42.210Z,7.52
2019-01-19T12:23:45.590Z,7.48
2019-01-19T12:24:48.957Z,7.21
2019-01-19T12:25:52.250Z,7.20
2019-01-19T12:26:55.536Z,7.33
2019-01-19T12:27:58.816Z,7.54
2019-01-19T12:29:02.152Z,7.64
2019-01-19T12:30:20.585Z,7.68
2019-01-19T12:31:23.960Z,7.73
2019-01-19T12:32:27.322Z,7.78
2019-01-19T12:33:30.614Z,7.86
2019-01-19T12:34:33.946Z,7.91
2019-01-19T12:35:37.266Z,8.00
2019-01-19T12:36:40.581Z,8.19
2019-01-19T12:37:43.870Z,8.31
2019-01-19T12:38:47.220Z,8.33
2019-01-19T12:39:50.544Z,8.29
2019-01-19T12:40:54.867Z,8.21
2019-01-19T12:41:58.154Z,8.22
2019-01-19T12:43:14.026Z,8.05
2019-01-19T12:44:17.385Z,7.92
2019-01-19T12:45:24.058Z,7.93
2019-01-19T12:46:27.373Z,7.82
2019-01-19T12:47:30.839Z,7.71
2019-01-19T12:48:34.127Z,7.63
2019-01-19T12:49:37.419Z,7.68
2019-01-19T12:50:40.988Z,7.65
2019-01-19T12:51:44.638Z,7.51
2019-01-19T12:52:47.988Z,7.45
2019-01-19T12:53:51.282Z,7.38
2019-01-19T12:54:54.565Z,7.42
2019-01-19T12:55:57.950Z,7.50
2019-01-19T12:57:01.288Z,7.53
2019-01-19T12:58:05.694Z,7.46
2019-01-19T12:59:08.982Z,7.41
2019-01-19T13:00:18.267Z,7.40
2019-01-19T13:01:21.587Z,7.35
2019-01-19T13:02:24.873Z,7.19
2019-01-19T13:03:28.196Z,7.11
2019-01-19T13:04:31.461Z,7.01
2019-01-19T13:05:43.991Z,6.94
2019-01-19T13:06:47.982Z,6.82
2019-01-19T13:07:52.144Z,6.68
2019-01-19T13:08:55.506Z,6.60
2019-01-19T13:09:58.934Z,6.52
2019-01-19T13:11:08.340Z,6.55
2019-01-19T13:12:14.936Z,6.56
2019-01-19T13:13:18.266Z,6.59
2019-01-19T13:14:21.622Z,6.63
2019-01-19T13:15:49.473Z,6.68
2019-01-19T13:17:04.444Z,6.72
2019-01-19T13:18:40.212Z,6.67
2019-01-19T13:19:49.817Z,6.53
2019-01-19T13:21:05.385Z,6.47
2019-01-19T13:22:34.717Z,6.28
2019-01-19T13:23:53.431Z,6.17
2019-01-19T13:25:08.748Z,6.24
2019-01-19T13:26:15.308Z,6.39
2019-01-19T13:27:33.020Z,6.51
2019-01-19T13:29:02.539Z,6.59
2019-01-19T13:30:24.369Z,6.66
2019-01-19T13:31:47.343Z,6.65
2019-01-19T13:33:09.390Z,6.65
2019-01-19T13:34:35.196Z,6.60
2019-01-19T13:35:44.547Z,6.53
2019-01-19T13:36:57.039Z,6.60
2019-01-19T13:38:29.434Z,6.74
2019-01-19T13:39:41.849Z,6.74
2019-01-19T13:40:57.056Z,6.62
2019-01-19T13:42:23.239Z,6.64
2019-01-19T13:43:46.208Z,6.80
2019-01-19T13:45:23.736Z,6.92
2019-01-19T13:46:38.934Z,6.87
2019-01-19T13:48:01.983Z,6.87
2019-01-19T13:49:25.046Z,6.82
2019-01-19T13:50:37.723Z,6.72
2019-01-19T13:51:46.866Z,6.54
2019-01-19T13:53:28.627Z,6.45
2019-01-19T13:54:38.048Z,6.37
2019-01-19T13:56:02.863Z,6.31
2019-01-19T13:57:21.373Z,6.24
2019-01-19T13:58:36.747Z,6.26
2019-01-19T14:00:05.047Z,6.21
2019-01-19T14:01:40.677Z,6.15
2019-01-19T14:02:50.175Z,6.12
2019-01-19T14:03:59.916Z,6.00
2019-01-19T14:05:12.368Z,5.99
2019-01-19T14:06:27.774Z,5.98
2019-01-19T14:07:37.275Z,5.90
2019-01-19T14:09:17.215Z,5.87
2019-01-19T14:10:23.993Z,5.79
2019-01-19T14:11:50.166Z,5.74
2019-01-19T14:13:02.781Z,5.65
2019-01-19T14:14:43.302Z,5.60
2019-01-19T14:15:55.874Z,5.54
2019-01-19T14:17:23.920Z,5.57
2019-01-19T14:18:42.748Z,5.58
2019-01-19T14:20:04.320Z,5.62
2019-01-19T14:21:22.842Z,5.63
2019-01-19T14:22:47.650Z,5.57
2019-01-19T14:24:21.467Z,5.57
2019-01-19T14:25:36.435Z,5.51
2019-01-19T14:26:52.078Z,5.45
2019-01-19T14:28:33.510Z,5.44
2019-01-19T14:29:43.029Z,5.37
2019-01-19T14:31:01.441Z,5.39
2019-01-19T14:32:10.662Z,5.35
2019-01-19T14:33:32.388Z,5.30
2019-01-19T14:34:38.948Z,5.35
2019-01-19T14:36:02.112Z,5.34
2019-01-19T14:37:08.661Z,5.36
2019-01-19T14:38:29.655Z,5.37
2019-01-19T14:39:47.901Z,5.31
2019-01-19T14:41:29.543Z,5.31
2019-01-19T14:42:38.644Z,5.22
2019-01-19T14:44:02.342Z,5.11
2019-01-19T14:45:20.748Z,4.94
2019-01-19T14:46:38.824Z,4.95
2019-01-19T14:47:54.109Z,4.89
2019-01-19T14:49:24.228Z,4.86
2019-01-19T14:50:45.946Z,4.86
2019-01-19T14:51:58.323Z,4.83
2019-01-19T14:53:21.440Z,4.76
2019-01-19T14:54:33.682Z,4.72
2019-01-19T14:55:55.260Z,4.61
2019-01-19T14:57:21.306Z,4.57
2019-01-19T14:58:36.917Z,4.55
2019-01-19T14:59:58.552Z,4.48
2019-01-19T15:01:07.671Z,4.50
2019-01-19T15:02:32.458Z,4.43
2019-01-19T15:03:44.645Z,4.38